Terminal Aerodrome Forecast
Issued by NWS Melbourne, FL

Home | Current Version | Previous Version | Text Only | Print | Product List | Glossary On
Versions: 1 2 3 4 5 6 7 8 9 10 11 12 13 14 15 16 17 18 19 20 21
096
FTUS42 KMLB 221135
TAFDAB
TAF
KDAB 221135Z 2212/2312 11004KT P6SM VCSH BKN080 OVC250
     FM221400 13008KT P6SM VCSH SCT025 BKN040 OVC060
      TEMPO 2214/2218 5SM SHRA OVC010
     FM221800 15009KT 5SM -RA BR OVC015
      TEMPO 2218/2222 2SM SHRA OVC008
     FM222200 09005KT P6SM VCSH SCT020 OVC050
      TEMPO 2222/2302 5SM SHRA BKN020 OVC040
     FM230200 07012KT P6SM VCSH BKN015 OVC030
     FM230600 08006KT P6SM BKN010 OVC020=

USA.gov is the U.S. government's official web portal to all federal, state and local government web resources and services.